createdAt,value
2018-12-06T00:00:31.537Z,0.00
2018-12-06T00:01:31.529Z,0.00
2018-12-06T00:02:31.650Z,0.00
2018-12-06T00:03:31.483Z,0.00
2018-12-06T00:04:31.469Z,0.00
2018-12-06T00:05:31.443Z,0.00
2018-12-06T00:06:31.435Z,0.00
2018-12-06T00:07:31.407Z,0.00
2018-12-06T00:08:31.543Z,0.00
2018-12-06T00:09:31.386Z,0.00
2018-12-06T00:10:31.363Z,0.00
2018-12-06T00:11:31.347Z,0.00
2018-12-06T00:12:31.325Z,0.00
2018-12-06T00:13:31.298Z,0.00
2018-12-06T00:14:31.324Z,0.00
2018-12-06T00:15:31.270Z,0.00
2018-12-06T00:16:31.242Z,0.00
2018-12-06T00:17:31.224Z,0.00
2018-12-06T00:18:31.205Z,0.00
2018-12-06T00:19:31.194Z,0.00
2018-12-06T00:20:31.191Z,0.00
2018-12-06T00:21:31.313Z,0.00
2018-12-06T00:22:31.142Z,0.00
2018-12-06T00:23:31.133Z,0.00
2018-12-06T00:24:31.116Z,0.00
2018-12-06T00:25:31.118Z,0.00
2018-12-06T00:26:31.073Z,0.00
2018-12-06T00:27:31.063Z,0.00
2018-12-06T00:28:31.076Z,0.00
2018-12-06T00:29:31.050Z,0.00
2018-12-06T00:30:30.999Z,0.00
2018-12-06T00:31:31.042Z,0.00
2018-12-06T00:32:31.113Z,0.00
2018-12-06T00:33:30.999Z,0.00
2018-12-06T00:34:30.947Z,0.00
2018-12-06T00:35:30.909Z,0.00
2018-12-06T00:36:30.902Z,0.00
2018-12-06T00:37:30.885Z,0.00
2018-12-06T00:38:30.915Z,0.00
2018-12-06T00:39:30.873Z,0.00
2018-12-06T00:40:30.823Z,0.00
2018-12-06T00:41:30.795Z,0.00
2018-12-06T00:42:30.787Z,0.00
2018-12-06T00:43:30.767Z,0.00
2018-12-06T00:44:30.778Z,0.00
2018-12-06T00:45:30.774Z,0.00
2018-12-06T00:46:30.758Z,0.00
2018-12-06T00:47:30.683Z,0.00
2018-12-06T00:48:30.717Z,0.00
2018-12-06T00:49:30.682Z,0.00
2018-12-06T00:50:30.693Z,0.00
2018-12-06T00:51:30.645Z,0.00
2018-12-06T00:52:30.622Z,0.00
2018-12-06T00:53:30.576Z,0.00
2018-12-06T00:54:30.555Z,0.00
2018-12-06T00:55:30.602Z,0.00
2018-12-06T00:56:30.521Z,0.00
2018-12-06T00:57:30.646Z,0.00
2018-12-06T00:58:30.501Z,0.00
2018-12-06T00:59:30.477Z,0.00
2018-12-06T01:00:30.456Z,0.00
2018-12-06T01:01:30.507Z,0.00
2018-12-06T01:02:30.417Z,0.00
2018-12-06T01:03:30.426Z,0.00
2018-12-06T01:04:30.387Z,0.00
2018-12-06T01:05:30.395Z,0.00
2018-12-06T01:06:30.353Z,0.00
2018-12-06T01:07:30.362Z,0.00
2018-12-06T01:08:30.371Z,0.00
2018-12-06T01:09:30.305Z,0.00
2018-12-06T01:10:30.265Z,0.00
2018-12-06T01:11:30.290Z,0.00
2018-12-06T01:12:30.274Z,0.00
2018-12-06T01:13:30.254Z,0.00
2018-12-06T01:14:30.273Z,0.00
2018-12-06T01:15:30.185Z,0.00
2018-12-06T01:16:30.169Z,0.00
2018-12-06T01:17:30.139Z,0.00
2018-12-06T01:18:30.169Z,0.00
2018-12-06T01:19:30.181Z,0.00
2018-12-06T01:20:30.123Z,0.00
2018-12-06T01:21:30.079Z,0.00
2018-12-06T01:22:30.072Z,0.00
2018-12-06T01:23:30.089Z,0.00
2018-12-06T01:24:30.021Z,0.00
2018-12-06T01:25:30.034Z,0.00
2018-12-06T01:26:29.999Z,0.00
2018-12-06T01:27:29.974Z,0.00
2018-12-06T01:28:29.939Z,0.00
2018-12-06T01:29:30.039Z,0.00
2018-12-06T01:30:29.922Z,0.00
2018-12-06T01:31:29.923Z,0.00
2018-12-06T01:32:29.882Z,0.00
2018-12-06T01:33:29.861Z,0.00
2018-12-06T01:34:29.833Z,0.00
2018-12-06T01:35:29.830Z,0.00
2018-12-06T01:36:29.827Z,0.00
2018-12-06T01:37:29.789Z,0.00
2018-12-06T01:38:29.756Z,0.00
2018-12-06T01:39:29.747Z,0.00
2018-12-06T01:40:29.743Z,0.00
2018-12-06T01:41:29.804Z,0.00
2018-12-06T01:42:30.986Z,0.00
2018-12-06T01:43:29.682Z,0.00
2018-12-06T01:44:29.654Z,0.00
2018-12-06T01:45:29.629Z,0.00
2018-12-06T01:46:29.649Z,0.00
2018-12-06T01:47:29.599Z,0.00
2018-12-06T01:48:29.593Z,0.00
2018-12-06T01:49:29.581Z,0.00
2018-12-06T01:50:29.547Z,0.00
2018-12-06T01:51:29.572Z,0.00
2018-12-06T01:52:29.603Z,0.00
2018-12-06T01:53:29.492Z,0.00
2018-12-06T01:54:29.534Z,0.00
2018-12-06T01:55:29.459Z,0.00
2018-12-06T01:56:29.447Z,0.00
2018-12-06T01:57:29.447Z,0.00
2018-12-06T01:58:29.400Z,0.00
2018-12-06T01:59:29.456Z,0.00
2018-12-06T02:00:29.391Z,0.00
2018-12-06T02:01:29.377Z,0.00
2018-12-06T02:02:29.361Z,0.00
2018-12-06T02:03:29.338Z,0.00
2018-12-06T02:04:29.304Z,0.00
2018-12-06T02:05:29.309Z,0.00
2018-12-06T02:06:29.264Z,0.00
2018-12-06T02:07:29.267Z,0.00
2018-12-06T02:08:29.232Z,0.00
2018-12-06T02:09:29.239Z,0.00
2018-12-06T02:10:29.232Z,0.00
2018-12-06T02:11:29.171Z,0.00
2018-12-06T02:12:29.213Z,0.00
2018-12-06T02:13:29.148Z,0.00
2018-12-06T02:14:29.181Z,0.00
2018-12-06T02:15:29.107Z,0.00
2018-12-06T02:16:29.098Z,0.00
2018-12-06T02:17:29.093Z,0.00
2018-12-06T02:18:29.044Z,0.00
2018-12-06T02:19:29.083Z,0.00
2018-12-06T02:20:29.178Z,0.00
2018-12-06T02:21:29.003Z,0.00
2018-12-06T02:22:28.980Z,0.00
2018-12-06T02:23:30.155Z,0.00
2018-12-06T02:24:28.934Z,0.00
2018-12-06T02:25:28.994Z,0.00
2018-12-06T02:26:28.968Z,0.00
2018-12-06T02:27:28.882Z,0.00
2018-12-06T02:28:28.865Z,0.00
2018-12-06T02:29:28.865Z,0.00
2018-12-06T02:30:28.869Z,0.00
2018-12-06T02:31:28.824Z,0.00
2018-12-06T02:32:28.814Z,0.00
2018-12-06T02:33:28.803Z,0.00
2018-12-06T02:34:28.768Z,0.00
2018-12-06T02:35:28.762Z,0.00
2018-12-06T02:36:28.728Z,0.00
2018-12-06T02:37:28.768Z,0.00
2018-12-06T02:38:28.737Z,0.00
2018-12-06T02:39:28.723Z,0.00
2018-12-06T02:40:28.663Z,0.00
2018-12-06T02:41:28.667Z,0.00
2018-12-06T02:42:28.612Z,0.00
2018-12-06T02:43:28.623Z,0.00
2018-12-06T02:44:28.603Z,0.00
2018-12-06T02:45:28.616Z,0.00
2018-12-06T02:46:28.539Z,0.00
2018-12-06T02:47:28.590Z,0.00
2018-12-06T02:48:28.533Z,0.00
2018-12-06T02:49:28.581Z,0.00
2018-12-06T02:50:28.497Z,0.00
2018-12-06T02:51:28.474Z,0.00
2018-12-06T02:52:28.436Z,0.00
2018-12-06T02:53:32.838Z,0.00
2018-12-06T02:54:28.398Z,0.00
2018-12-06T02:55:28.378Z,0.00
2018-12-06T02:56:28.364Z,0.00
2018-12-06T02:57:28.366Z,0.00
2018-12-06T02:58:28.371Z,0.00
2018-12-06T02:59:28.314Z,0.00
2018-12-06T03:00:28.302Z,0.00
2018-12-06T03:01:28.439Z,0.00
2018-12-06T03:02:28.267Z,0.00
2018-12-06T03:03:28.238Z,0.00
2018-12-06T03:04:28.229Z,0.00
2018-12-06T03:05:28.213Z,0.00
2018-12-06T03:06:28.191Z,0.00
2018-12-06T03:07:28.198Z,0.00
2018-12-06T03:08:28.255Z,0.00
2018-12-06T03:09:28.133Z,0.00
2018-12-06T03:10:28.265Z,0.00
2018-12-06T03:11:28.105Z,0.00
2018-12-06T03:12:28.101Z,0.00
2018-12-06T03:13:28.088Z,0.00
2018-12-06T03:14:28.044Z,0.00
2018-12-06T03:15:28.049Z,0.00
2018-12-06T03:16:28.043Z,0.00
2018-12-06T03:17:28.164Z,0.00
2018-12-06T03:18:28.001Z,0.00
2018-12-06T03:19:27.965Z,0.00
2018-12-06T03:20:27.977Z,0.00
2018-12-06T03:21:27.923Z,0.00
2018-12-06T03:22:27.945Z,0.00
2018-12-06T03:23:27.889Z,0.00
2018-12-06T03:24:27.880Z,0.00
2018-12-06T03:25:27.848Z,0.00
2018-12-06T03:26:27.947Z,0.00
2018-12-06T03:27:27.820Z,0.00
2018-12-06T03:28:27.807Z,0.00
2018-12-06T03:29:27.790Z,0.00
2018-12-06T03:30:27.773Z,0.00
2018-12-06T03:31:27.741Z,0.00
2018-12-06T03:32:27.769Z,0.00
2018-12-06T03:33:27.718Z,0.00
2018-12-06T03:34:27.732Z,0.00
2018-12-06T03:35:27.672Z,0.00
2018-12-06T03:36:27.679Z,0.00
2018-12-06T03:37:27.662Z,0.00
2018-12-06T03:38:27.641Z,0.00
2018-12-06T03:39:27.641Z,0.00
2018-12-06T03:40:27.612Z,0.00
2018-12-06T03:41:27.586Z,0.00
2018-12-06T03:42:27.620Z,0.00
2018-12-06T03:43:27.532Z,0.00
2018-12-06T03:44:27.573Z,0.00
2018-12-06T03:45:27.535Z,0.00
2018-12-06T03:46:27.517Z,0.00
2018-12-06T03:47:27.459Z,0.00
2018-12-06T03:48:27.460Z,0.00
2018-12-06T03:49:27.543Z,0.00
2018-12-06T03:50:27.416Z,0.00
2018-12-06T03:51:27.425Z,0.00
2018-12-06T03:52:27.501Z,0.00
2018-12-06T03:53:27.347Z,0.00
2018-12-06T03:54:27.348Z,0.00
2018-12-06T03:55:27.318Z,0.00
2018-12-06T03:56:27.303Z,0.00
2018-12-06T03:57:27.274Z,0.00
2018-12-06T03:58:27.295Z,0.00
2018-12-06T03:59:27.256Z,0.00
2018-12-06T04:00:27.249Z,0.00
2018-12-06T04:01:27.219Z,0.00
2018-12-06T04:02:27.210Z,0.00
2018-12-06T04:03:27.180Z,0.00
2018-12-06T04:04:27.235Z,0.00
2018-12-06T04:05:27.146Z,0.00
2018-12-06T04:06:27.130Z,0.00
2018-12-06T04:07:27.116Z,0.00
2018-12-06T04:08:27.111Z,0.00
2018-12-06T04:09:27.196Z,0.00
2018-12-06T04:10:27.074Z,0.00
2018-12-06T04:11:27.040Z,0.00
2018-12-06T04:12:27.109Z,0.00
2018-12-06T04:13:27.002Z,0.00
2018-12-06T04:14:26.986Z,0.00
2018-12-06T04:15:27.012Z,0.00
2018-12-06T04:16:26.956Z,0.00
2018-12-06T04:17:26.947Z,0.00
2018-12-06T04:18:26.912Z,0.00
2018-12-06T04:19:26.895Z,0.00
2018-12-06T04:20:26.902Z,0.00
2018-12-06T04:21:26.855Z,0.00
2018-12-06T04:22:26.844Z,0.00
2018-12-06T04:23:26.839Z,0.00
2018-12-06T04:24:26.838Z,0.00
2018-12-06T04:25:26.789Z,0.00
2018-12-06T04:26:26.769Z,0.00
2018-12-06T04:27:26.740Z,0.00
2018-12-06T04:28:26.770Z,0.00
2018-12-06T04:29:26.704Z,0.00
2018-12-06T04:30:26.695Z,0.00
2018-12-06T04:31:26.719Z,0.00
2018-12-06T04:32:26.668Z,0.00
2018-12-06T04:33:26.675Z,0.00
2018-12-06T04:34:26.620Z,0.00
2018-12-06T04:35:26.614Z,0.00
2018-12-06T04:36:26.734Z,0.00
2018-12-06T04:37:26.567Z,0.00
2018-12-06T04:38:26.556Z,0.00
2018-12-06T04:39:26.532Z,0.00
2018-12-06T04:40:26.524Z,0.00
2018-12-06T04:41:26.498Z,0.00
2018-12-06T04:42:26.486Z,0.00
2018-12-06T04:43:26.472Z,0.00
2018-12-06T04:44:26.436Z,0.00
2018-12-06T04:45:26.427Z,0.00
2018-12-06T04:46:26.438Z,0.00
2018-12-06T04:47:26.390Z,0.00
2018-12-06T04:48:26.373Z,0.00
2018-12-06T04:49:26.359Z,0.00
2018-12-06T04:50:26.333Z,0.00
2018-12-06T04:51:26.348Z,0.00
2018-12-06T04:52:26.297Z,0.00
2018-12-06T04:53:26.289Z,0.00
2018-12-06T04:54:26.263Z,0.00
2018-12-06T04:55:26.257Z,0.00
2018-12-06T04:56:26.282Z,0.00
2018-12-06T04:57:26.210Z,0.00
2018-12-06T04:58:26.191Z,0.00
2018-12-06T04:59:26.188Z,0.00
2018-12-06T05:00:26.153Z,0.00
2018-12-06T05:01:26.147Z,0.00
2018-12-06T05:02:26.278Z,0.00
2018-12-06T05:03:26.112Z,0.00
2018-12-06T05:04:26.096Z,0.00
2018-12-06T05:05:26.082Z,0.00
2018-12-06T05:06:26.051Z,0.00
2018-12-06T05:07:26.030Z,0.00
2018-12-06T05:08:26.089Z,0.00
2018-12-06T05:09:26.008Z,0.00
2018-12-06T05:10:25.970Z,0.00
2018-12-06T05:11:25.962Z,0.00
2018-12-06T05:12:25.951Z,0.00
2018-12-06T05:13:25.940Z,0.00
2018-12-06T05:14:25.912Z,0.00
2018-12-06T05:15:25.891Z,0.00
2018-12-06T05:16:25.878Z,0.00
2018-12-06T05:17:25.850Z,0.00
2018-12-06T05:18:26.001Z,0.00
2018-12-06T05:19:25.821Z,0.00
2018-12-06T05:20:25.802Z,0.00
2018-12-06T05:21:25.781Z,0.00
2018-12-06T05:22:25.775Z,0.00
2018-12-06T05:23:25.756Z,0.00
2018-12-06T05:24:25.739Z,0.00
2018-12-06T05:25:25.849Z,0.00
2018-12-06T05:26:25.699Z,0.00
2018-12-06T05:27:25.676Z,0.00
2018-12-06T05:28:25.662Z,0.00
2018-12-06T05:29:25.652Z,0.00
2018-12-06T05:30:25.632Z,0.00
2018-12-06T05:31:25.648Z,0.00
2018-12-06T05:32:25.583Z,0.00
2018-12-06T05:33:25.571Z,0.00
2018-12-06T05:34:25.579Z,0.00
2018-12-06T05:35:25.567Z,0.00
2018-12-06T05:36:25.514Z,0.00
2018-12-06T05:37:25.509Z,0.00
2018-12-06T05:38:25.476Z,0.00
2018-12-06T05:39:25.608Z,0.00
2018-12-06T05:40:25.442Z,0.00
2018-12-06T05:41:25.442Z,0.00
2018-12-06T05:42:25.415Z,0.00
2018-12-06T05:43:25.392Z,0.00
2018-12-06T05:44:25.371Z,0.00
2018-12-06T05:45:25.403Z,0.00
2018-12-06T05:46:25.337Z,0.00
2018-12-06T05:47:25.373Z,0.00
2018-12-06T05:48:25.311Z,0.00
2018-12-06T05:49:25.284Z,0.00
2018-12-06T05:50:25.275Z,0.00
2018-12-06T05:51:25.290Z,0.00
2018-12-06T05:52:25.260Z,0.00
2018-12-06T05:53:25.220Z,0.00
2018-12-06T05:54:25.207Z,0.00
2018-12-06T05:55:25.187Z,0.00
2018-12-06T05:56:25.166Z,0.00
2018-12-06T05:57:25.301Z,0.00
2018-12-06T05:58:25.135Z,0.00
2018-12-06T05:59:25.115Z,0.00
2018-12-06T06:00:25.099Z,0.00
2018-12-06T06:01:25.079Z,0.00
2018-12-06T06:02:25.051Z,0.00
2018-12-06T06:03:25.064Z,0.00
2018-12-06T06:04:25.022Z,0.00
2018-12-06T06:05:25.002Z,0.00
2018-12-06T06:06:24.977Z,0.00
2018-12-06T06:07:24.962Z,0.00
2018-12-06T06:08:24.992Z,0.00
2018-12-06T06:09:25.673Z,0.00
2018-12-06T06:10:25.051Z,0.00
2018-12-06T06:11:24.893Z,0.00
2018-12-06T06:12:24.887Z,0.00
2018-12-06T06:13:24.858Z,0.00
2018-12-06T06:14:24.851Z,0.00
2018-12-06T06:15:24.834Z,0.00
2018-12-06T06:16:24.828Z,0.00
2018-12-06T06:17:24.824Z,0.00
2018-12-06T06:18:24.785Z,0.00
2018-12-06T06:19:24.755Z,0.00
2018-12-06T06:20:24.742Z,0.00
2018-12-06T06:21:24.726Z,0.00
2018-12-06T06:22:24.726Z,0.00
2018-12-06T06:23:24.680Z,0.00
2018-12-06T06:24:24.676Z,0.00
2018-12-06T06:25:24.689Z,0.00
2018-12-06T06:26:24.646Z,0.00
2018-12-06T06:27:26.271Z,0.00
2018-12-06T06:28:24.623Z,0.00
2018-12-06T06:29:24.585Z,0.00
2018-12-06T06:30:24.557Z,0.00
2018-12-06T06:31:24.548Z,0.00
2018-12-06T06:32:24.523Z,0.00
2018-12-06T06:33:24.503Z,0.00
2018-12-06T06:34:24.494Z,0.00
2018-12-06T06:35:24.480Z,0.00
2018-12-06T06:36:24.513Z,0.00
2018-12-06T06:37:24.432Z,0.00
2018-12-06T06:38:24.490Z,0.00
2018-12-06T06:39:24.397Z,0.00
2018-12-06T06:40:24.431Z,0.00
2018-12-06T06:41:24.379Z,0.00
2018-12-06T06:42:24.373Z,0.00
2018-12-06T06:43:24.376Z,0.00
2018-12-06T06:44:24.308Z,0.00
2018-12-06T06:45:24.291Z,0.00
2018-12-06T06:46:24.281Z,0.00
2018-12-06T06:47:24.253Z,0.00
2018-12-06T06:48:24.316Z,0.00
2018-12-06T06:49:24.240Z,0.00
2018-12-06T06:50:24.224Z,0.00
2018-12-06T06:51:24.196Z,0.00
2018-12-06T06:52:24.180Z,0.00
2018-12-06T06:53:24.164Z,0.00
2018-12-06T06:54:24.145Z,0.00
2018-12-06T06:55:24.134Z,0.00
2018-12-06T06:56:24.105Z,0.00
2018-12-06T06:57:24.084Z,0.00
2018-12-06T06:58:24.068Z,4.00
2018-12-06T06:59:26.185Z,4.00
2018-12-06T07:00:24.040Z,4.00
2018-12-06T07:01:24.025Z,4.00
2018-12-06T07:02:23.996Z,4.00
2018-12-06T07:03:23.978Z,4.00
2018-12-06T07:04:23.973Z,4.00
2018-12-06T07:05:23.976Z,4.00
2018-12-06T07:06:23.938Z,4.00
2018-12-06T07:07:23.915Z,8.00
2018-12-06T07:08:23.898Z,8.00
2018-12-06T07:09:23.886Z,12.00
2018-12-06T07:10:23.901Z,8.00
2018-12-06T07:11:23.840Z,12.00
2018-12-06T07:12:23.835Z,12.00
2018-12-06T07:13:23.805Z,16.00
2018-12-06T07:14:23.791Z,16.00
2018-12-06T07:15:23.772Z,20.00
2018-12-06T07:16:23.827Z,24.00
2018-12-06T07:17:23.734Z,28.00
2018-12-06T07:18:23.718Z,28.00
2018-12-06T07:19:23.696Z,28.00
2018-12-06T07:20:23.695Z,32.00
2018-12-06T07:21:23.700Z,32.00
2018-12-06T07:22:23.710Z,28.00
2018-12-06T07:23:23.635Z,32.00
2018-12-06T07:24:23.628Z,32.00
2018-12-06T07:25:23.683Z,36.00
2018-12-06T07:26:23.584Z,36.00
2018-12-06T07:27:23.561Z,36.00
2018-12-06T07:28:23.560Z,44.00
2018-12-06T07:29:23.540Z,48.00
2018-12-06T07:30:23.521Z,48.00
2018-12-06T07:31:23.505Z,52.00
2018-12-06T07:32:23.479Z,64.00
2018-12-06T07:33:23.487Z,64.00
2018-12-06T07:34:23.448Z,76.00
2018-12-06T07:35:23.414Z,92.00
2018-12-06T07:36:23.398Z,112.00
2018-12-06T07:37:23.386Z,112.00
2018-12-06T07:38:23.370Z,136.00
2018-12-06T07:39:23.351Z,148.00
2018-12-06T07:40:23.333Z,144.00
2018-12-06T07:41:23.324Z,128.00
2018-12-06T07:42:23.296Z,132.00
2018-12-06T07:43:23.324Z,132.00
2018-12-06T07:44:23.266Z,152.00
2018-12-06T07:45:23.256Z,152.00
2018-12-06T07:46:23.237Z,148.00
2018-12-06T07:47:23.220Z,160.00
2018-12-06T07:48:23.281Z,180.00
2018-12-06T07:49:23.182Z,184.00
2018-12-06T07:50:23.169Z,180.00
2018-12-06T07:51:23.146Z,192.00
2018-12-06T07:52:23.127Z,200.00
2018-12-06T07:53:23.102Z,184.00
2018-12-06T07:54:23.243Z,196.00
2018-12-06T07:55:23.081Z,180.00
2018-12-06T07:56:23.074Z,180.00
2018-12-06T07:57:23.050Z,164.00
2018-12-06T07:58:23.026Z,160.00
2018-12-06T07:59:23.010Z,168.00
2018-12-06T08:00:23.056Z,160.00
2018-12-06T08:01:23.191Z,160.00
2018-12-06T08:02:22.960Z,176.00
2018-12-06T08:03:23.006Z,172.00
2018-12-06T08:04:22.920Z,168.00
2018-12-06T08:05:22.907Z,188.00
2018-12-06T08:06:22.902Z,200.00
2018-12-06T08:07:22.906Z,200.00
2018-12-06T08:08:22.858Z,196.00
2018-12-06T08:09:22.833Z,196.00
2018-12-06T08:10:22.813Z,172.00
2018-12-06T08:11:22.807Z,172.00
2018-12-06T08:12:22.782Z,200.00
2018-12-06T08:13:22.759Z,220.00
2018-12-06T08:14:22.745Z,184.00
2018-12-06T08:15:22.772Z,176.00
2018-12-06T08:16:22.703Z,184.00
2018-12-06T08:17:22.689Z,188.00
2018-12-06T08:18:22.674Z,192.00
2018-12-06T08:19:22.657Z,188.00
2018-12-06T08:20:22.646Z,188.00
2018-12-06T08:21:22.621Z,196.00
2018-12-06T08:22:22.603Z,200.00
2018-12-06T08:23:22.602Z,208.00
2018-12-06T08:24:22.576Z,204.00
2018-12-06T08:25:22.557Z,192.00
2018-12-06T08:26:22.546Z,204.00
2018-12-06T08:27:22.692Z,248.00
2018-12-06T08:28:22.516Z,304.00
2018-12-06T08:29:22.486Z,312.00
2018-12-06T08:30:22.480Z,308.00
2018-12-06T08:31:22.453Z,308.00
2018-12-06T08:32:22.445Z,348.00
2018-12-06T08:33:22.421Z,400.00
2018-12-06T08:34:22.396Z,468.00
2018-12-06T08:35:22.389Z,576.00
2018-12-06T08:36:22.362Z,592.00
2018-12-06T08:37:22.381Z,628.00
2018-12-06T08:38:22.330Z,672.00
2018-12-06T08:39:22.378Z,756.00
2018-12-06T08:40:22.289Z,676.00
2018-12-06T08:41:22.272Z,696.00
2018-12-06T08:42:22.267Z,696.00
2018-12-06T08:43:22.233Z,696.00
2018-12-06T08:44:22.231Z,772.00
2018-12-06T08:45:22.210Z,800.00
2018-12-06T08:46:22.204Z,808.00
2018-12-06T08:47:22.172Z,820.00
2018-12-06T08:48:22.170Z,784.00
2018-12-06T08:49:22.146Z,840.00
2018-12-06T08:50:22.263Z,876.00
2018-12-06T08:51:22.109Z,928.00
2018-12-06T08:52:22.095Z,864.00
2018-12-06T08:53:22.076Z,764.00
2018-12-06T08:54:22.054Z,612.00
2018-12-06T08:55:22.030Z,580.00
2018-12-06T08:56:22.019Z,636.00
2018-12-06T08:57:22.038Z,676.00
2018-12-06T08:58:21.994Z,684.00
2018-12-06T08:59:21.974Z,716.00
2018-12-06T09:00:21.987Z,708.00
2018-12-06T09:01:21.950Z,736.00
2018-12-06T09:02:21.909Z,748.00
2018-12-06T09:03:21.911Z,764.00
2018-12-06T09:04:21.882Z,780.00
2018-12-06T09:05:21.869Z,788.00
2018-12-06T09:06:21.844Z,848.00
2018-12-06T09:07:21.827Z,844.00
2018-12-06T09:08:21.815Z,868.00
2018-12-06T09:09:21.788Z,876.00
2018-12-06T09:10:21.783Z,912.00
2018-12-06T09:11:21.837Z,892.00
2018-12-06T09:12:21.756Z,912.00
2018-12-06T09:13:21.722Z,912.00
2018-12-06T09:14:21.715Z,952.00
2018-12-06T09:15:21.704Z,948.00
2018-12-06T09:16:21.685Z,908.00
2018-12-06T09:17:21.701Z,836.00
2018-12-06T09:18:21.646Z,792.00
2018-12-06T09:19:21.635Z,788.00
2018-12-06T09:20:21.636Z,788.00
2018-12-06T09:21:21.590Z,804.00
2018-12-06T09:22:21.611Z,800.00
2018-12-06T09:23:21.564Z,824.00
2018-12-06T09:24:21.553Z,860.00
2018-12-06T09:25:21.609Z,908.00
2018-12-06T09:26:21.512Z,976.00
2018-12-06T09:27:21.526Z,968.00
2018-12-06T09:28:21.463Z,916.00
2018-12-06T09:29:21.459Z,908.00
2018-12-06T09:30:21.442Z,912.00
2018-12-06T09:31:21.412Z,944.00
2018-12-06T09:32:21.469Z,1004.00
2018-12-06T09:33:21.394Z,1064.00
2018-12-06T09:34:21.421Z,1008.00
2018-12-06T09:35:21.343Z,912.00
2018-12-06T09:36:21.329Z,896.00
2018-12-06T09:37:21.328Z,848.00
2018-12-06T09:38:21.307Z,896.00
2018-12-06T09:39:21.296Z,912.00
2018-12-06T09:40:21.561Z,916.00
2018-12-06T09:41:21.255Z,904.00
2018-12-06T09:42:21.228Z,952.00
2018-12-06T09:43:21.258Z,996.00
2018-12-06T09:44:21.204Z,1116.00
2018-12-06T09:45:21.171Z,1112.00
2018-12-06T09:46:21.258Z,1196.00
2018-12-06T09:47:21.202Z,1268.00
2018-12-06T09:48:21.147Z,1344.00
2018-12-06T09:49:21.144Z,1520.00
2018-12-06T09:50:21.114Z,1648.00
2018-12-06T09:51:21.094Z,1764.00
2018-12-06T09:52:21.064Z,1876.00
2018-12-06T09:53:21.107Z,2032.00
2018-12-06T09:54:21.183Z,1972.00
2018-12-06T09:55:21.005Z,1900.00
2018-12-06T09:56:21.008Z,1892.00
2018-12-06T09:57:20.986Z,1744.00
2018-12-06T09:58:20.959Z,1656.00
2018-12-06T09:59:20.989Z,1580.00
2018-12-06T10:00:20.929Z,1412.00
2018-12-06T10:01:20.911Z,1496.00
2018-12-06T10:02:20.900Z,1384.00
2018-12-06T10:03:20.872Z,1232.00
2018-12-06T10:04:20.867Z,1360.00
2018-12-06T10:05:20.848Z,1388.00
2018-12-06T10:06:20.926Z,1348.00
2018-12-06T10:07:20.819Z,1308.00
2018-12-06T10:08:20.806Z,1288.00
2018-12-06T10:09:20.769Z,1436.00
2018-12-06T10:10:20.794Z,1536.00
2018-12-06T10:11:20.740Z,1676.00
2018-12-06T10:12:20.718Z,1588.00
2018-12-06T10:13:20.700Z,1540.00
2018-12-06T10:14:20.719Z,1624.00
2018-12-06T10:15:20.737Z,1588.00
2018-12-06T10:16:20.676Z,1576.00
2018-12-06T10:17:20.647Z,1548.00
2018-12-06T10:18:20.619Z,1572.00
2018-12-06T10:19:20.602Z,1428.00
2018-12-06T10:20:20.616Z,1296.00
2018-12-06T10:21:20.594Z,1276.00
2018-12-06T10:22:20.560Z,1428.00
2018-12-06T10:23:20.535Z,1476.00
2018-12-06T10:24:20.548Z,1540.00
2018-12-06T10:25:20.514Z,1628.00
2018-12-06T10:26:20.477Z,1576.00
2018-12-06T10:27:20.519Z,1772.00
2018-12-06T10:28:20.458Z,1668.00
2018-12-06T10:29:20.432Z,1616.00
2018-12-06T10:30:20.426Z,1600.00
2018-12-06T10:31:20.403Z,1640.00
2018-12-06T10:32:20.389Z,1644.00
2018-12-06T10:33:20.382Z,1744.00
2018-12-06T10:34:20.355Z,1740.00
2018-12-06T10:35:20.326Z,1696.00
2018-12-06T10:36:20.362Z,1596.00
2018-12-06T10:37:20.400Z,1676.00
2018-12-06T10:38:20.284Z,1664.00
2018-12-06T10:39:20.262Z,1608.00
2018-12-06T10:40:20.246Z,1652.00
2018-12-06T10:41:20.237Z,1552.00
2018-12-06T10:42:20.206Z,1532.00
2018-12-06T10:43:20.207Z,1372.00
2018-12-06T10:44:20.320Z,1236.00
2018-12-06T10:45:20.169Z,1120.00
2018-12-06T10:46:20.140Z,1092.00
2018-12-06T10:47:20.138Z,1120.00
2018-12-06T10:48:20.107Z,1240.00
2018-12-06T10:49:20.093Z,1072.00
2018-12-06T10:50:20.088Z,1012.00
2018-12-06T10:51:20.068Z,964.00
2018-12-06T10:52:20.115Z,1032.00
2018-12-06T10:53:20.259Z,1124.00
2018-12-06T10:54:20.037Z,1096.00
2018-12-06T10:55:20.040Z,1104.00
2018-12-06T10:56:20.198Z,1120.00
2018-12-06T10:57:20.043Z,1076.00
2018-12-06T10:58:22.283Z,1048.00
2018-12-06T10:59:19.960Z,1032.00
2018-12-06T11:00:19.916Z,960.00
2018-12-06T11:01:19.965Z,980.00
2018-12-06T11:02:19.884Z,1032.00
2018-12-06T11:03:19.871Z,1148.00
2018-12-06T11:04:19.838Z,1060.00
2018-12-06T11:05:19.834Z,1040.00
2018-12-06T11:06:19.817Z,1052.00
2018-12-06T11:07:19.833Z,1144.00
2018-12-06T11:08:19.789Z,1064.00
2018-12-06T11:09:19.767Z,1044.00
2018-12-06T11:10:19.753Z,1068.00
2018-12-06T11:11:19.763Z,964.00
2018-12-06T11:12:19.775Z,908.00
2018-12-06T11:13:19.691Z,944.00
2018-12-06T11:14:19.672Z,908.00
2018-12-06T11:15:19.661Z,860.00
2018-12-06T11:16:19.647Z,868.00
2018-12-06T11:17:19.634Z,816.00
2018-12-06T11:18:19.642Z,796.00
2018-12-06T11:19:19.589Z,904.00
2018-12-06T11:20:19.584Z,936.00
2018-12-06T11:21:19.564Z,908.00
2018-12-06T11:22:19.553Z,876.00
2018-12-06T11:23:19.551Z,860.00
2018-12-06T11:24:19.499Z,772.00
2018-12-06T11:25:19.496Z,760.00
2018-12-06T11:26:19.479Z,672.00
2018-12-06T11:27:19.468Z,664.00
2018-12-06T11:28:19.475Z,668.00
2018-12-06T11:29:19.432Z,660.00
2018-12-06T11:30:19.419Z,720.00
2018-12-06T11:31:19.386Z,776.00
2018-12-06T11:32:19.379Z,824.00
2018-12-06T11:33:19.354Z,764.00
2018-12-06T11:34:19.348Z,764.00
2018-12-06T11:35:19.340Z,816.00
2018-12-06T11:36:19.316Z,844.00
2018-12-06T11:37:19.303Z,756.00
2018-12-06T11:38:19.281Z,752.00
2018-12-06T11:39:19.384Z,764.00
2018-12-06T11:40:19.246Z,688.00
2018-12-06T11:41:19.229Z,692.00
2018-12-06T11:42:19.219Z,736.00
2018-12-06T11:43:19.304Z,732.00
2018-12-06T11:44:19.180Z,672.00
2018-12-06T11:45:19.168Z,700.00
2018-12-06T11:46:19.147Z,732.00
2018-12-06T11:47:19.122Z,824.00
2018-12-06T11:48:26.658Z,836.00
2018-12-06T11:49:19.106Z,796.00
2018-12-06T11:50:19.074Z,832.00
2018-12-06T11:51:19.063Z,904.00
2018-12-06T11:52:19.038Z,916.00
2018-12-06T11:53:19.367Z,884.00
2018-12-06T11:54:19.010Z,856.00
2018-12-06T11:55:19.135Z,888.00
2018-12-06T11:56:19.045Z,896.00
2018-12-06T11:57:18.965Z,940.00
2018-12-06T11:58:18.934Z,884.00
2018-12-06T11:59:18.927Z,816.00
2018-12-06T12:00:18.911Z,836.00
2018-12-06T12:01:18.896Z,796.00
2018-12-06T12:02:18.888Z,932.00
2018-12-06T12:03:18.862Z,944.00
2018-12-06T12:04:18.837Z,948.00
2018-12-06T12:05:18.824Z,972.00
2018-12-06T12:06:18.814Z,932.00
2018-12-06T12:07:18.938Z,876.00
2018-12-06T12:08:18.775Z,796.00
2018-12-06T12:09:18.764Z,740.00
2018-12-06T12:10:18.735Z,756.00
2018-12-06T12:11:18.717Z,720.00
2018-12-06T12:12:18.701Z,712.00
2018-12-06T12:13:18.737Z,792.00
2018-12-06T12:14:18.674Z,744.00
2018-12-06T12:15:18.657Z,792.00
2018-12-06T12:16:18.645Z,796.00
2018-12-06T12:17:18.615Z,728.00
2018-12-06T12:18:18.600Z,732.00
2018-12-06T12:19:18.597Z,708.00
2018-12-06T12:20:18.581Z,688.00
2018-12-06T12:21:18.567Z,708.00
2018-12-06T12:22:18.536Z,688.00
2018-12-06T12:23:18.530Z,736.00
2018-12-06T12:24:18.517Z,840.00
2018-12-06T12:25:18.484Z,844.00
2018-12-06T12:26:18.480Z,840.00
2018-12-06T12:27:18.468Z,828.00
2018-12-06T12:28:18.433Z,804.00
2018-12-06T12:29:18.521Z,704.00
2018-12-06T12:30:18.404Z,692.00
2018-12-06T12:31:18.395Z,748.00
2018-12-06T12:32:18.387Z,828.00
2018-12-06T12:33:18.357Z,764.00
2018-12-06T12:34:18.344Z,756.00
2018-12-06T12:35:18.934Z,788.00
2018-12-06T12:36:18.330Z,740.00
2018-12-06T12:37:18.298Z,728.00
2018-12-06T12:38:18.276Z,900.00
2018-12-06T12:39:18.319Z,896.00
2018-12-06T12:40:18.245Z,956.00
2018-12-06T12:41:23.363Z,932.00
2018-12-06T12:42:18.239Z,920.00
2018-12-06T12:43:18.185Z,880.00
2018-12-06T12:44:18.177Z,828.00
2018-12-06T12:45:18.173Z,816.00
2018-12-06T12:46:18.262Z,824.00
2018-12-06T12:47:18.338Z,852.00
2018-12-06T12:48:21.855Z,784.00
2018-12-06T12:49:18.893Z,756.00
2018-12-06T12:50:18.209Z,748.00
2018-12-06T12:51:18.065Z,748.00
2018-12-06T12:52:18.040Z,740.00
2018-12-06T12:53:18.057Z,660.00